Aeroporto :
LOGIN :

Iscrizione | Disclaimer

   EN    FR    IT 

 










Sommario :    VFR   VFR Marginale   IFR   IFR Intensivo   IFR Molto Intensivo
Visibilità : 
Base nubi : 
>= 8 km
>= 3000ft
5 / 8 km
1000 / 3000 ft
1500m / 5 km
500 / 1000 ft
800 / 1500m
200 / 500 ft
< 800m
< 200 ft
Simboli :   Temporali  Nebbia  Neve Forte  Precipitazioni Forti  Vento > 20 kt
SIGMETs :   Varie  Temporali  Ghiacco  Turbolenza  Onda orograficha  Ceneri Vulcaniche






- Altitudine del aeroporto : 308 ft
- Codice IATA : POZ


EPPO - Poznan-Lawica

ULTIMO METAR :
  • 281230Z 19012KT 9999 BKN011 06/04 Q0994

METARs OBSOLETI :
  • 281200Z 20011KT 9999 SCT008 BKN046 06/04 Q0994
  • 281130Z 19012KT 9999 BKN007 05/04 Q0994
  • 281100Z 19010KT 9999 -RA BKN007 OVC033 04/04 Q0995
  • 281030Z 18009KT 9999 -RA SCT008 OVC010 04/03 Q0995

TAF TAF EPPO
Valido dal 28 a 12 ore il 29 a 12 ore UTC


281130Z 2812/2912 16011KT 9999 OVC020
TEMPO 2812/2814 BKN007
BECMG 2815/2818 24015G25KT
TEMPO 2815/2912 24020G35KT 3500 SHRA BKN014CB
PROB30
TEMPO 2902/2906 2000 SHRASN BKN007 BKN012CB



MetMap, La meteo Aeronautica in un colpo d'occhio ! - Copyright ORBIFLY Dicembre 2007 - Disclaimer

ORBIFLY MET'MAP TEAM :

Programmazione e sviluppo : Alexandra Zaïnal
Concezione : Baudouin d'Aumeries
Aiuto per la programmazione : Marc-Olivier Méhu
Supporto tecnico e logistico : Manuel Goepfert
Aiuto per la traduzione : Arnaldo La Scala

Contatto : metmap@orbifly.com




FONTI E CREDITI :

   NOAA